createdAt,value
2019-01-29T00:00:09.388Z,67.25
2019-01-29T00:01:09.429Z,67.46
2019-01-29T00:02:09.439Z,68.49
2019-01-29T00:03:09.358Z,68.29
2019-01-29T00:04:09.361Z,67.36
2019-01-29T00:05:09.323Z,66.74
2019-01-29T00:06:09.345Z,66.74
2019-01-29T00:07:09.297Z,66.02
2019-01-29T00:08:09.297Z,65.81
2019-01-29T00:09:09.271Z,65.60
2019-01-29T00:10:09.287Z,66.22
2019-01-29T00:11:09.305Z,67.57
2019-01-29T00:12:09.246Z,68.80
2019-01-29T00:13:09.251Z,67.05
2019-01-29T00:14:09.257Z,68.60
2019-01-29T00:15:09.215Z,67.36
2019-01-29T00:16:09.192Z,68.91
2019-01-29T00:17:09.207Z,67.36
2019-01-29T00:18:09.270Z,66.53
2019-01-29T00:19:09.240Z,66.02
2019-01-29T00:20:09.166Z,66.02
2019-01-29T00:21:09.250Z,67.36
2019-01-29T00:22:09.151Z,67.46
2019-01-29T00:23:09.120Z,67.36
2019-01-29T00:24:09.305Z,67.25
2019-01-29T00:25:09.104Z,67.88
2019-01-29T00:26:09.115Z,67.05
2019-01-29T00:27:09.110Z,66.42
2019-01-29T00:28:09.085Z,67.46
2019-01-29T00:29:09.119Z,68.19
2019-01-29T00:30:09.108Z,69.12
2019-01-29T00:31:09.040Z,69.22
2019-01-29T00:32:09.022Z,68.49
2019-01-29T00:33:09.039Z,68.60
2019-01-29T00:34:09.002Z,69.12
2019-01-29T00:35:09.006Z,69.43
2019-01-29T00:36:09.015Z,70.05
2019-01-29T00:37:08.993Z,69.74
2019-01-29T00:38:08.964Z,68.29
2019-01-29T00:39:08.994Z,67.57
2019-01-29T00:40:09.012Z,66.94
2019-01-29T00:41:08.998Z,66.32
2019-01-29T00:42:08.945Z,66.53
2019-01-29T00:43:08.968Z,66.63
2019-01-29T00:44:08.900Z,66.63
2019-01-29T00:45:08.967Z,67.57
2019-01-29T00:46:08.932Z,67.36
2019-01-29T00:47:08.908Z,66.74
2019-01-29T00:48:09.002Z,66.84
2019-01-29T00:49:08.947Z,66.22
2019-01-29T00:50:08.829Z,67.05
2019-01-29T00:51:08.894Z,67.25
2019-01-29T00:52:08.887Z,67.25
2019-01-29T00:53:08.889Z,69.12
2019-01-29T00:54:08.840Z,69.12
2019-01-29T00:55:08.779Z,69.01
2019-01-29T00:56:08.814Z,68.49
2019-01-29T00:57:08.894Z,68.60
2019-01-29T00:58:08.757Z,67.98
2019-01-29T00:59:08.743Z,67.77
2019-01-29T01:00:08.765Z,67.88
2019-01-29T01:01:08.770Z,67.57
2019-01-29T01:02:08.814Z,68.40
2019-01-29T01:03:08.682Z,67.77
2019-01-29T01:04:08.816Z,68.19
2019-01-29T01:05:08.672Z,67.36
2019-01-29T01:06:08.703Z,68.49
2019-01-29T01:07:08.729Z,68.40
2019-01-29T01:08:08.762Z,69.84
2019-01-29T01:09:08.627Z,69.22
2019-01-29T01:10:08.656Z,70.15
2019-01-29T01:11:08.848Z,69.22
2019-01-29T01:12:08.590Z,68.60
2019-01-29T01:13:08.750Z,68.60
2019-01-29T01:14:08.623Z,68.60
2019-01-29T01:15:08.586Z,69.64
2019-01-29T01:16:08.624Z,70.05
2019-01-29T01:17:08.682Z,69.22
2019-01-29T01:18:08.545Z,68.60
2019-01-29T01:19:08.684Z,68.70
2019-01-29T01:20:08.595Z,68.91
2019-01-29T01:21:08.505Z,68.80
2019-01-29T01:22:08.615Z,68.70
2019-01-29T01:23:08.644Z,69.64
2019-01-29T01:24:08.474Z,70.15
2019-01-29T01:25:08.631Z,69.84
2019-01-29T01:26:08.440Z,69.43
2019-01-29T01:27:08.519Z,69.01
2019-01-29T01:28:08.517Z,68.49
2019-01-29T01:29:08.824Z,68.29
2019-01-29T01:30:08.404Z,68.60
2019-01-29T01:31:08.493Z,69.74
2019-01-29T01:32:08.387Z,70.36
2019-01-29T01:33:08.479Z,71.39
2019-01-29T01:34:08.389Z,71.50
2019-01-29T01:35:08.350Z,71.50
2019-01-29T01:36:08.346Z,71.19
2019-01-29T01:37:08.505Z,70.15
2019-01-29T01:38:08.328Z,70.87
2019-01-29T01:39:08.430Z,70.26
2019-01-29T01:40:08.372Z,68.91
2019-01-29T01:41:08.322Z,68.40
2019-01-29T01:42:08.279Z,69.95
2019-01-29T01:43:08.304Z,70.05
2019-01-29T01:44:08.267Z,70.36
2019-01-29T01:45:08.370Z,70.47
2019-01-29T01:46:08.235Z,68.40
2019-01-29T01:47:08.276Z,68.60
2019-01-29T01:48:08.282Z,68.60
2019-01-29T01:49:08.264Z,69.43
2019-01-29T01:50:08.175Z,69.95
2019-01-29T01:51:08.194Z,70.57
2019-01-29T01:52:08.157Z,71.39
2019-01-29T01:53:08.173Z,70.36
2019-01-29T01:54:08.153Z,70.05
2019-01-29T01:55:08.154Z,69.74
2019-01-29T01:56:08.126Z,69.53
2019-01-29T01:57:08.247Z,69.95
2019-01-29T01:58:08.094Z,70.36
2019-01-29T01:59:08.091Z,71.29
2019-01-29T02:00:08.141Z,70.47
2019-01-29T02:01:08.253Z,68.80
2019-01-29T02:02:08.123Z,69.01
2019-01-29T02:03:08.066Z,70.47
2019-01-29T02:04:08.143Z,71.50
2019-01-29T02:05:08.021Z,72.02
2019-01-29T02:06:08.098Z,73.15
2019-01-29T02:07:08.038Z,73.05
2019-01-29T02:08:08.142Z,73.46
2019-01-29T02:09:08.116Z,71.81
2019-01-29T02:10:08.235Z,71.19
2019-01-29T02:11:08.026Z,71.81
2019-01-29T02:12:08.100Z,71.91
2019-01-29T02:13:07.991Z,71.94
2019-01-29T02:14:07.990Z,71.43
2019-01-29T02:15:08.064Z,71.84
2019-01-29T02:16:07.927Z,72.15
2019-01-29T02:17:07.942Z,71.43
2019-01-29T02:18:08.060Z,71.63
2019-01-29T02:19:07.949Z,71.73
2019-01-29T02:20:07.860Z,72.29
2019-01-29T02:21:07.857Z,71.88
2019-01-29T02:22:07.934Z,71.46
2019-01-29T02:23:08.439Z,68.98
2019-01-29T02:24:07.833Z,68.35
2019-01-29T02:25:07.839Z,68.66
2019-01-29T02:26:07.958Z,70.42
2019-01-29T02:27:07.779Z,71.77
2019-01-29T02:28:08.082Z,71.43
2019-01-29T02:29:07.945Z,71.63
2019-01-29T02:30:07.800Z,71.43
2019-01-29T02:31:07.905Z,70.91
2019-01-29T02:32:08.129Z,70.18
2019-01-29T02:33:07.838Z,69.15
2019-01-29T02:34:07.847Z,69.98
2019-01-29T02:35:07.760Z,70.08
2019-01-29T02:36:07.808Z,70.29
2019-01-29T02:37:07.777Z,70.81
2019-01-29T02:38:07.670Z,71.53
2019-01-29T02:39:07.741Z,73.29
2019-01-29T02:40:07.773Z,72.25
2019-01-29T02:41:07.678Z,72.15
2019-01-29T02:42:08.013Z,71.73
2019-01-29T02:43:07.751Z,71.53
2019-01-29T02:44:07.601Z,72.36
2019-01-29T02:45:07.713Z,71.53
2019-01-29T02:46:07.607Z,71.53
2019-01-29T02:47:07.570Z,71.33
2019-01-29T02:48:07.559Z,71.43
2019-01-29T02:49:07.633Z,71.43
2019-01-29T02:50:07.900Z,71.22
2019-01-29T02:51:08.159Z,71.43
2019-01-29T02:52:07.537Z,71.73
2019-01-29T02:53:17.337Z,71.73
2019-01-29T02:54:08.505Z,71.33
2019-01-29T02:55:07.682Z,72.25
2019-01-29T02:56:07.510Z,72.46
2019-01-29T02:57:07.519Z,71.73
2019-01-29T02:58:07.646Z,71.63
2019-01-29T02:59:07.475Z,72.36
2019-01-29T03:00:07.426Z,71.63
2019-01-29T03:01:07.474Z,71.94
2019-01-29T03:02:07.415Z,73.39
2019-01-29T03:03:07.580Z,73.29
2019-01-29T03:04:07.420Z,73.39
2019-01-29T03:05:07.410Z,73.08
2019-01-29T03:06:07.404Z,73.60
2019-01-29T03:07:07.531Z,73.60
2019-01-29T03:08:07.550Z,73.39
2019-01-29T03:09:07.351Z,73.29
2019-01-29T03:10:07.878Z,74.02
2019-01-29T03:11:07.379Z,73.39
2019-01-29T03:12:07.472Z,73.60
2019-01-29T03:13:07.292Z,72.77
2019-01-29T03:14:07.302Z,73.91
2019-01-29T03:15:07.274Z,74.95
2019-01-29T03:16:07.519Z,75.92
2019-01-29T03:17:07.275Z,75.50
2019-01-29T03:18:07.251Z,75.92
2019-01-29T03:19:07.272Z,75.92
2019-01-29T03:20:07.227Z,74.57
2019-01-29T03:21:07.237Z,74.36
2019-01-29T03:22:07.204Z,74.36
2019-01-29T03:23:07.216Z,75.29
2019-01-29T03:24:07.280Z,76.32
2019-01-29T03:25:07.356Z,76.15
2019-01-29T03:26:07.320Z,76.02
2019-01-29T03:27:07.301Z,73.32
2019-01-29T03:28:07.293Z,72.60
2019-01-29T03:29:07.189Z,73.74
2019-01-29T03:30:07.119Z,75.50
2019-01-29T03:31:07.105Z,74.84
2019-01-29T03:32:07.121Z,72.81
2019-01-29T03:33:07.181Z,73.11
2019-01-29T03:34:07.109Z,75.09
2019-01-29T03:35:07.051Z,73.53
2019-01-29T03:36:07.122Z,74.84
2019-01-29T03:37:07.258Z,74.05
2019-01-29T03:38:07.176Z,73.63
2019-01-29T03:39:07.071Z,73.32
2019-01-29T03:40:07.005Z,73.53
2019-01-29T03:41:07.058Z,73.63
2019-01-29T03:42:07.078Z,73.53
2019-01-29T03:43:07.043Z,73.43
2019-01-29T03:44:07.263Z,74.15
2019-01-29T03:45:06.969Z,75.09
2019-01-29T03:46:06.989Z,73.11
2019-01-29T03:47:07.126Z,73.32
2019-01-29T03:48:06.913Z,71.88
2019-01-29T03:49:07.051Z,73.32
2019-01-29T03:50:06.935Z,73.22
2019-01-29T03:51:06.953Z,73.53
2019-01-29T03:52:06.918Z,73.32
2019-01-29T03:53:07.012Z,73.63
2019-01-29T03:54:06.942Z,73.81
2019-01-29T03:55:07.012Z,74.46
2019-01-29T03:56:06.981Z,74.88
2019-01-29T03:57:07.010Z,75.29
2019-01-29T03:58:06.866Z,75.19
2019-01-29T03:59:06.860Z,75.09
2019-01-29T04:00:06.854Z,75.50
2019-01-29T04:01:06.823Z,75.19
2019-01-29T04:02:06.832Z,75.81
2019-01-29T04:03:06.825Z,75.29
2019-01-29T04:04:06.849Z,75.63
2019-01-29T04:05:06.814Z,75.60
2019-01-29T04:06:06.737Z,73.74
2019-01-29T04:07:06.739Z,73.11
2019-01-29T04:08:06.753Z,73.32
2019-01-29T04:09:06.916Z,73.11
2019-01-29T04:10:06.695Z,72.74
2019-01-29T04:11:06.754Z,73.46
2019-01-29T04:12:06.822Z,73.36
2019-01-29T04:13:06.838Z,73.77
2019-01-29T04:14:06.713Z,75.63
2019-01-29T04:15:06.629Z,75.43
2019-01-29T04:16:06.707Z,75.53
2019-01-29T04:17:06.779Z,75.29
2019-01-29T04:18:06.777Z,75.22
2019-01-29T04:19:06.623Z,75.29
2019-01-29T04:20:06.678Z,75.53
2019-01-29T04:21:06.604Z,75.71
2019-01-29T04:22:06.655Z,75.84
2019-01-29T04:23:06.624Z,75.71
2019-01-29T04:24:06.664Z,75.53
2019-01-29T04:25:06.569Z,75.53
2019-01-29T04:26:06.537Z,73.43
2019-01-29T04:27:06.726Z,71.08
2019-01-29T04:28:06.538Z,71.49
2019-01-29T04:29:06.586Z,71.49
2019-01-29T04:30:06.476Z,72.71
2019-01-29T04:31:06.652Z,73.01
2019-01-29T04:32:06.439Z,73.22
2019-01-29T04:33:06.428Z,73.53
2019-01-29T04:34:06.410Z,73.32
2019-01-29T04:35:06.436Z,72.01
2019-01-29T04:36:06.486Z,73.36
2019-01-29T04:37:06.424Z,72.42
2019-01-29T04:38:06.410Z,71.91
2019-01-29T04:39:06.412Z,71.39
2019-01-29T04:40:06.391Z,71.28
2019-01-29T04:41:06.475Z,72.63
2019-01-29T04:42:06.527Z,72.32
2019-01-29T04:43:06.323Z,72.60
2019-01-29T04:44:06.402Z,73.32
2019-01-29T04:45:06.387Z,73.53
2019-01-29T04:46:06.292Z,73.01
2019-01-29T04:47:06.392Z,72.60
2019-01-29T04:48:06.286Z,73.46
2019-01-29T04:49:06.275Z,73.32
2019-01-29T04:50:06.351Z,73.05
2019-01-29T04:51:06.307Z,73.53
2019-01-29T04:52:06.399Z,73.46
2019-01-29T04:53:06.263Z,73.57
2019-01-29T04:54:06.285Z,73.32
2019-01-29T04:55:06.191Z,73.36
2019-01-29T04:56:06.251Z,73.46
2019-01-29T04:57:06.176Z,73.57
2019-01-29T04:58:06.163Z,73.36
2019-01-29T04:59:06.234Z,73.25
2019-01-29T05:00:06.191Z,73.46
2019-01-29T05:01:06.126Z,72.63
2019-01-29T05:02:06.122Z,72.53
2019-01-29T05:03:06.184Z,71.70
2019-01-29T05:04:06.186Z,73.15
2019-01-29T05:05:06.239Z,73.15
2019-01-29T05:06:06.364Z,73.57
2019-01-29T05:07:06.123Z,72.84
2019-01-29T05:08:06.072Z,73.36
2019-01-29T05:09:06.090Z,73.15
2019-01-29T05:10:06.307Z,73.05
2019-01-29T05:11:06.034Z,73.25
2019-01-29T05:12:06.043Z,72.01
2019-01-29T05:13:06.293Z,73.57
2019-01-29T05:14:06.102Z,72.22
2019-01-29T05:15:06.061Z,72.94
2019-01-29T05:16:06.031Z,73.36
2019-01-29T05:17:05.958Z,72.11
2019-01-29T05:18:06.018Z,72.63
2019-01-29T05:19:06.142Z,72.71
2019-01-29T05:20:05.985Z,73.46
2019-01-29T05:21:06.204Z,73.57
2019-01-29T05:22:06.027Z,73.57
2019-01-29T05:23:05.971Z,72.94
2019-01-29T05:24:07.035Z,73.57
2019-01-29T05:25:05.868Z,73.11
2019-01-29T05:26:06.185Z,73.36
2019-01-29T05:27:05.853Z,72.74
2019-01-29T05:28:06.158Z,72.32
2019-01-29T05:29:05.857Z,73.15
2019-01-29T05:30:06.206Z,72.01
2019-01-29T05:31:05.862Z,72.11
2019-01-29T05:32:06.118Z,73.05
2019-01-29T05:33:05.818Z,72.42
2019-01-29T05:34:05.866Z,71.91
2019-01-29T05:35:05.937Z,71.39
2019-01-29T05:36:05.844Z,72.22
2019-01-29T05:37:05.882Z,72.84
2019-01-29T05:38:05.779Z,73.15
2019-01-29T05:39:05.716Z,74.50
2019-01-29T05:40:05.798Z,73.77
2019-01-29T05:41:05.694Z,73.57
2019-01-29T05:42:05.707Z,73.25
2019-01-29T05:43:05.669Z,73.25
2019-01-29T05:44:05.682Z,73.67
2019-01-29T05:45:05.719Z,73.88
2019-01-29T05:46:05.870Z,73.98
2019-01-29T05:47:05.629Z,73.98
2019-01-29T05:48:05.867Z,73.46
2019-01-29T05:49:05.698Z,73.77
2019-01-29T05:50:05.625Z,73.77
2019-01-29T05:51:05.581Z,73.77
2019-01-29T05:52:05.612Z,74.08
2019-01-29T05:53:05.562Z,73.67
2019-01-29T05:54:05.553Z,73.67
2019-01-29T05:55:05.564Z,73.57
2019-01-29T05:56:05.531Z,73.36
2019-01-29T05:57:05.551Z,72.84
2019-01-29T05:58:05.521Z,73.36
2019-01-29T05:59:05.499Z,72.11
2019-01-29T06:00:05.604Z,72.22
2019-01-29T06:01:05.513Z,71.39
2019-01-29T06:02:05.468Z,71.28
2019-01-29T06:03:05.564Z,72.11
2019-01-29T06:04:05.853Z,71.59
2019-01-29T06:05:05.869Z,71.59
2019-01-29T06:06:05.468Z,70.46
2019-01-29T06:07:05.452Z,70.56
2019-01-29T06:08:05.447Z,70.67
2019-01-29T06:09:05.412Z,70.15
2019-01-29T06:10:05.719Z,70.87
2019-01-29T06:11:05.507Z,69.73
2019-01-29T06:12:05.400Z,69.08
2019-01-29T06:13:05.439Z,69.29
2019-01-29T06:14:05.396Z,69.80
2019-01-29T06:15:05.406Z,68.98
2019-01-29T06:16:05.391Z,69.18
2019-01-29T06:17:05.326Z,68.77
2019-01-29T06:18:05.426Z,68.80
2019-01-29T06:19:05.282Z,69.11
2019-01-29T06:20:05.339Z,70.46
2019-01-29T06:21:05.350Z,69.90
2019-01-29T06:22:05.302Z,69.18
2019-01-29T06:23:05.257Z,68.98
2019-01-29T06:24:05.332Z,69.60
2019-01-29T06:25:05.220Z,70.32
2019-01-29T06:26:05.209Z,69.18
2019-01-29T06:27:05.238Z,70.53
2019-01-29T06:28:05.428Z,70.42
2019-01-29T06:29:05.264Z,69.39
2019-01-29T06:30:05.262Z,69.21
2019-01-29T06:31:05.273Z,70.56
2019-01-29T06:32:05.237Z,71.91
2019-01-29T06:33:05.186Z,72.11
2019-01-29T06:34:05.339Z,72.32
2019-01-29T06:35:05.128Z,73.15
2019-01-29T06:36:05.172Z,74.53
2019-01-29T06:37:05.115Z,73.88
2019-01-29T06:38:05.093Z,73.70
2019-01-29T06:39:05.203Z,74.19
2019-01-29T06:40:05.105Z,74.22
2019-01-29T06:41:05.181Z,75.15
2019-01-29T06:42:05.077Z,75.05
2019-01-29T06:43:05.284Z,75.36
2019-01-29T06:44:05.020Z,75.46
2019-01-29T06:45:05.016Z,74.74
2019-01-29T06:46:05.111Z,75.50
2019-01-29T06:47:05.007Z,75.09
2019-01-29T06:48:04.998Z,74.95
2019-01-29T06:49:04.971Z,75.09
2019-01-29T06:50:04.961Z,75.09
2019-01-29T06:51:04.934Z,75.40
2019-01-29T06:52:04.939Z,75.40
2019-01-29T06:53:04.996Z,74.22
2019-01-29T06:54:04.919Z,74.26
2019-01-29T06:55:04.904Z,73.84
2019-01-29T06:56:04.937Z,73.43
2019-01-29T06:57:04.881Z,73.22
2019-01-29T06:58:04.957Z,73.49
2019-01-29T06:59:04.973Z,73.84
2019-01-29T07:00:04.932Z,74.01
2019-01-29T07:01:05.247Z,73.18
2019-01-29T07:02:04.823Z,73.08
2019-01-29T07:03:04.814Z,73.18
2019-01-29T07:04:04.818Z,72.88
2019-01-29T07:05:04.804Z,71.94
2019-01-29T07:06:04.840Z,72.56
2019-01-29T07:07:04.770Z,73.39
2019-01-29T07:08:04.768Z,73.25
2019-01-29T07:09:04.756Z,73.36
2019-01-29T07:10:04.780Z,72.94
2019-01-29T07:11:04.785Z,72.01
2019-01-29T07:12:04.723Z,72.53
2019-01-29T07:13:04.756Z,71.70
2019-01-29T07:14:04.740Z,71.39
2019-01-29T07:15:04.788Z,70.97
2019-01-29T07:16:04.669Z,71.49
2019-01-29T07:17:04.657Z,70.87
2019-01-29T07:18:04.759Z,70.67
2019-01-29T07:19:04.653Z,70.46
2019-01-29T07:20:04.670Z,71.59
2019-01-29T07:21:04.617Z,72.01
2019-01-29T07:22:04.596Z,71.80
2019-01-29T07:23:04.596Z,71.91
2019-01-29T07:24:04.643Z,72.84
2019-01-29T07:25:04.568Z,73.57
2019-01-29T07:26:04.576Z,73.46
2019-01-29T07:27:04.553Z,71.91
2019-01-29T07:28:04.568Z,72.01
2019-01-29T07:29:04.536Z,71.70
2019-01-29T07:30:04.528Z,71.18
2019-01-29T07:31:04.544Z,71.80
2019-01-29T07:32:04.485Z,71.28
2019-01-29T07:33:04.523Z,71.18
2019-01-29T07:34:04.499Z,71.70
2019-01-29T07:35:04.517Z,71.80
2019-01-29T07:36:04.454Z,71.39
2019-01-29T07:37:04.434Z,70.56
2019-01-29T07:38:04.435Z,71.49
2019-01-29T07:39:04.893Z,71.49
2019-01-29T07:40:04.441Z,71.18
2019-01-29T07:41:04.392Z,70.36
2019-01-29T07:42:04.482Z,70.87
2019-01-29T07:43:04.405Z,69.21
2019-01-29T07:44:04.399Z,69.60
2019-01-29T07:45:04.353Z,71.25
2019-01-29T07:46:04.362Z,70.94
2019-01-29T07:47:04.349Z,70.63
2019-01-29T07:48:04.378Z,70.11
2019-01-29T07:49:04.471Z,69.80
2019-01-29T07:50:04.455Z,69.04
2019-01-29T07:51:04.410Z,68.84
2019-01-29T07:52:04.344Z,69.15
2019-01-29T07:53:04.410Z,69.56
2019-01-29T07:54:04.260Z,69.74
2019-01-29T07:55:04.697Z,69.64
2019-01-29T07:56:04.352Z,68.29
2019-01-29T07:57:04.256Z,67.46
2019-01-29T07:58:04.210Z,67.95
2019-01-29T07:59:04.246Z,68.54
2019-01-29T08:00:04.188Z,67.88
2019-01-29T08:01:04.235Z,67.03
2019-01-29T08:02:04.222Z,67.34
2019-01-29T08:03:04.164Z,66.58
2019-01-29T08:04:04.306Z,65.94
2019-01-29T08:05:04.135Z,65.21
2019-01-29T08:06:04.136Z,65.94
2019-01-29T08:07:04.124Z,64.36
2019-01-29T08:08:04.101Z,64.43
2019-01-29T08:09:04.099Z,64.32
2019-01-29T08:10:04.103Z,62.47
2019-01-29T08:11:04.083Z,62.65
2019-01-29T08:12:04.057Z,62.75
2019-01-29T08:13:04.139Z,62.57
2019-01-29T08:14:04.042Z,63.27
2019-01-29T08:15:04.029Z,62.44
2019-01-29T08:16:04.018Z,62.93
2019-01-29T08:17:04.016Z,62.31
2019-01-29T08:18:03.997Z,61.80
2019-01-29T08:19:03.987Z,61.77
2019-01-29T08:20:03.990Z,61.98
2019-01-29T08:21:03.986Z,61.15
2019-01-29T08:22:03.954Z,58.68
2019-01-29T08:23:03.939Z,60.91
2019-01-29T08:24:03.940Z,60.99
2019-01-29T08:25:03.920Z,59.73
2019-01-29T08:26:03.910Z,59.52
2019-01-29T08:27:03.906Z,57.03
2019-01-29T08:28:03.888Z,56.70
2019-01-29T08:29:03.881Z,55.54
2019-01-29T08:30:03.879Z,56.46
2019-01-29T08:31:03.889Z,54.69
2019-01-29T08:32:03.849Z,54.15
2019-01-29T08:33:03.827Z,53.61
2019-01-29T08:34:03.882Z,53.82
2019-01-29T08:35:03.819Z,53.80
2019-01-29T08:36:03.799Z,53.49
2019-01-29T08:37:03.789Z,53.26
2019-01-29T08:38:03.782Z,53.13
2019-01-29T08:39:03.776Z,52.90
2019-01-29T08:40:03.777Z,51.78
2019-01-29T08:41:04.514Z,52.54
2019-01-29T08:42:03.799Z,51.78
2019-01-29T08:43:03.734Z,51.37
2019-01-29T08:44:03.711Z,49.91
2019-01-29T08:45:03.709Z,49.27
2019-01-29T08:46:03.705Z,49.55
2019-01-29T08:47:03.716Z,49.25
2019-01-29T08:48:03.713Z,49.05
2019-01-29T08:49:03.665Z,49.13
2019-01-29T08:50:03.661Z,47.75
2019-01-29T08:51:03.862Z,48.26
2019-01-29T08:52:03.629Z,46.71
2019-01-29T08:53:03.640Z,46.69
2019-01-29T08:54:03.620Z,46.36
2019-01-29T08:55:10.520Z,45.85
2019-01-29T08:56:04.591Z,46.64
2019-01-29T08:57:03.592Z,44.97
2019-01-29T08:58:03.570Z,43.93
2019-01-29T08:59:03.557Z,42.92
2019-01-29T09:00:03.556Z,43.08
2019-01-29T09:01:03.523Z,42.02
2019-01-29T09:02:03.515Z,41.93
2019-01-29T09:03:03.583Z,41.58
2019-01-29T09:04:03.523Z,40.45
2019-01-29T09:05:03.485Z,39.53
2019-01-29T09:06:03.521Z,40.87
2019-01-29T09:07:03.462Z,40.83
2019-01-29T09:08:03.709Z,39.07
2019-01-29T09:09:03.449Z,38.73
2019-01-29T09:10:03.472Z,37.38
2019-01-29T09:11:03.460Z,36.88
2019-01-29T09:12:03.408Z,39.79
2019-01-29T09:13:03.424Z,36.47
2019-01-29T09:14:03.397Z,37.75
2019-01-29T09:15:03.438Z,36.52
2019-01-29T09:16:03.494Z,35.88
2019-01-29T09:17:03.357Z,35.26
2019-01-29T09:18:03.365Z,34.64
2019-01-29T09:19:03.408Z,35.55
2019-01-29T09:20:03.353Z,35.57
2019-01-29T09:21:03.390Z,34.49
2019-01-29T09:22:03.333Z,35.82
2019-01-29T09:23:03.290Z,35.78
2019-01-29T09:24:03.280Z,35.05
2019-01-29T09:25:03.286Z,33.20
2019-01-29T09:26:03.251Z,33.18
2019-01-29T09:27:03.243Z,33.20
2019-01-29T09:28:03.238Z,35.05
2019-01-29T09:29:03.277Z,33.31
2019-01-29T09:30:03.227Z,33.47
2019-01-29T09:31:03.230Z,32.24
2019-01-29T09:32:03.188Z,32.52
2019-01-29T09:33:03.175Z,31.48
2019-01-29T09:34:03.170Z,31.30
2019-01-29T09:35:03.157Z,31.80
2019-01-29T09:36:03.206Z,32.10
2019-01-29T09:37:03.141Z,30.47
2019-01-29T09:38:03.182Z,30.85
2019-01-29T09:39:03.137Z,30.36
2019-01-29T09:40:03.122Z,30.38
2019-01-29T09:41:03.130Z,31.31
2019-01-29T09:42:03.087Z,30.44
2019-01-29T09:43:03.106Z,32.14
2019-01-29T09:44:03.086Z,32.43
2019-01-29T09:45:03.076Z,32.26
2019-01-29T09:46:03.062Z,31.95
2019-01-29T09:47:03.041Z,31.73
2019-01-29T09:48:03.036Z,31.50
2019-01-29T09:49:03.013Z,30.10
2019-01-29T09:50:03.036Z,30.40
2019-01-29T09:51:03.049Z,30.60
2019-01-29T09:52:02.987Z,30.80
2019-01-29T09:53:02.963Z,31.70
2019-01-29T09:54:02.952Z,30.36
2019-01-29T09:55:02.949Z,30.04
2019-01-29T09:56:02.948Z,29.34
2019-01-29T09:57:02.911Z,29.93
2019-01-29T09:58:02.925Z,28.42
2019-01-29T09:59:02.901Z,29.62
2019-01-29T10:00:02.911Z,29.93
2019-01-29T10:01:02.874Z,28.33
2019-01-29T10:02:02.870Z,30.35
2019-01-29T10:03:02.849Z,30.87
2019-01-29T10:04:02.869Z,29.75
2019-01-29T10:05:02.829Z,29.65
2019-01-29T10:06:02.818Z,30.11
2019-01-29T10:07:02.811Z,28.30
2019-01-29T10:08:02.841Z,28.59
2019-01-29T10:09:02.823Z,29.18
2019-01-29T10:10:02.842Z,28.14
2019-01-29T10:11:02.815Z,26.54
2019-01-29T10:12:02.774Z,27.19
2019-01-29T10:13:02.784Z,27.58
2019-01-29T10:14:02.798Z,28.89
2019-01-29T10:15:03.351Z,27.66
2019-01-29T10:16:02.709Z,27.23
2019-01-29T10:17:02.723Z,27.42
2019-01-29T10:18:02.706Z,25.31
2019-01-29T10:19:02.680Z,25.90
2019-01-29T10:20:03.348Z,26.50
2019-01-29T10:21:02.655Z,26.88
2019-01-29T10:22:02.653Z,27.50
2019-01-29T10:23:02.641Z,27.67
2019-01-29T10:24:02.639Z,26.37
2019-01-29T10:25:02.620Z,26.75
2019-01-29T10:26:02.623Z,25.74
2019-01-29T10:27:02.595Z,25.55
2019-01-29T10:28:02.596Z,25.67
2019-01-29T10:29:02.626Z,24.98
2019-01-29T10:30:02.559Z,25.70
2019-01-29T10:31:02.550Z,25.20
2019-01-29T10:32:02.539Z,25.57
2019-01-29T10:33:02.524Z,25.46
2019-01-29T10:34:02.564Z,24.17
2019-01-29T10:35:02.505Z,24.57
2019-01-29T10:36:02.496Z,25.16
2019-01-29T10:37:02.490Z,24.96
2019-01-29T10:38:02.484Z,25.16
2019-01-29T10:39:02.462Z,24.46
2019-01-29T10:40:02.442Z,23.66
2019-01-29T10:41:02.483Z,25.57
2019-01-29T10:42:02.430Z,25.19
2019-01-29T10:43:02.419Z,25.59
2019-01-29T10:44:02.403Z,25.31
2019-01-29T10:45:02.435Z,25.62
2019-01-29T10:46:02.399Z,26.45
2019-01-29T10:47:02.376Z,27.98
2019-01-29T10:48:02.382Z,28.32
2019-01-29T10:49:02.355Z,28.46
2019-01-29T10:50:02.339Z,29.82
2019-01-29T10:51:02.370Z,30.87
2019-01-29T10:52:02.317Z,31.53
2019-01-29T10:53:02.313Z,34.52
2019-01-29T10:54:02.331Z,35.58
2019-01-29T10:55:02.364Z,36.08
2019-01-29T10:56:02.271Z,39.49
2019-01-29T10:57:02.311Z,39.12
2019-01-29T10:58:02.247Z,40.88
2019-01-29T10:59:02.264Z,41.92
2019-01-29T11:00:02.230Z,42.13
2019-01-29T11:01:02.226Z,42.65
2019-01-29T11:02:02.217Z,42.96
2019-01-29T11:03:02.199Z,41.84
2019-01-29T11:04:02.247Z,42.25
2019-01-29T11:05:02.175Z,41.82
2019-01-29T11:06:02.232Z,42.33
2019-01-29T11:07:02.146Z,42.53
2019-01-29T11:08:02.150Z,41.94
2019-01-29T11:09:02.164Z,42.04
2019-01-29T11:10:02.122Z,41.94
2019-01-29T11:11:02.153Z,43.06
2019-01-29T11:12:02.101Z,43.77
2019-01-29T11:13:02.087Z,42.45
2019-01-29T11:14:02.115Z,42.76
2019-01-29T11:15:02.071Z,42.04
2019-01-29T11:16:02.108Z,42.14
2019-01-29T11:17:02.109Z,43.57
2019-01-29T11:18:02.149Z,42.04
2019-01-29T11:19:03.258Z,42.35
2019-01-29T11:20:02.091Z,42.33
2019-01-29T11:21:02.005Z,43.14
2019-01-29T11:22:02.255Z,42.94
2019-01-29T11:23:02.012Z,42.04
2019-01-29T11:24:01.972Z,41.84
2019-01-29T11:25:01.971Z,41.37
2019-01-29T11:26:01.951Z,43.00
2019-01-29T11:27:01.983Z,41.96
2019-01-29T11:28:01.947Z,42.88
2019-01-29T11:29:01.929Z,42.37
2019-01-29T11:30:01.911Z,42.88
2019-01-29T11:31:01.976Z,43.59
2019-01-29T11:32:01.883Z,43.10
2019-01-29T11:33:01.928Z,43.10
2019-01-29T11:34:01.977Z,45.65
2019-01-29T11:35:01.848Z,44.63
2019-01-29T11:36:01.838Z,43.71
2019-01-29T11:37:01.861Z,42.47
2019-01-29T11:38:01.828Z,42.27
2019-01-29T11:39:01.856Z,41.98
2019-01-29T11:40:01.800Z,42.29
2019-01-29T11:41:01.793Z,42.37
2019-01-29T11:42:01.782Z,42.37
2019-01-29T11:43:01.769Z,41.86
2019-01-29T11:44:01.780Z,41.35
2019-01-29T11:45:01.761Z,42.06
2019-01-29T11:46:01.763Z,42.08
2019-01-29T11:47:01.719Z,43.73
2019-01-29T11:48:01.786Z,43.44
2019-01-29T11:49:02.778Z,43.12
2019-01-29T11:50:01.687Z,43.84
2019-01-29T11:51:01.684Z,43.63
2019-01-29T11:52:01.680Z,43.12
2019-01-29T11:53:01.641Z,42.90
2019-01-29T11:54:01.638Z,42.37
2019-01-29T11:55:01.658Z,42.55
2019-01-29T11:56:04.731Z,41.21
2019-01-29T11:57:01.702Z,41.31
2019-01-29T11:58:01.624Z,41.21
2019-01-29T11:59:01.719Z,42.22
2019-01-29T12:00:01.639Z,41.61
2019-01-29T12:01:01.564Z,41.82
2019-01-29T12:02:01.703Z,42.13
2019-01-29T12:03:01.626Z,42.13
2019-01-29T12:04:01.558Z,41.82
2019-01-29T12:05:01.536Z,41.31
2019-01-29T12:06:01.566Z,41.92
2019-01-29T12:07:01.503Z,41.11
2019-01-29T12:08:01.735Z,41.29
2019-01-29T12:09:01.673Z,41.09
2019-01-29T12:10:01.465Z,40.78
2019-01-29T12:11:01.479Z,41.49
2019-01-29T12:12:01.499Z,41.27
2019-01-29T12:13:02.517Z,40.48
2019-01-29T12:14:01.427Z,41.29
2019-01-29T12:15:01.486Z,39.76
2019-01-29T12:16:01.520Z,44.54
2019-01-29T12:17:01.633Z,39.26
2019-01-29T12:18:01.550Z,38.63
2019-01-29T12:19:01.381Z,39.64
2019-01-29T12:20:01.355Z,44.22
2019-01-29T12:21:01.360Z,40.46
2019-01-29T12:22:01.353Z,39.54
2019-01-29T12:23:01.377Z,38.43
2019-01-29T12:24:01.304Z,39.75
2019-01-29T12:25:01.326Z,38.93
2019-01-29T12:26:01.286Z,39.76
2019-01-29T12:27:01.284Z,39.76
2019-01-29T12:28:01.397Z,40.80
2019-01-29T12:29:01.404Z,39.38
2019-01-29T12:30:01.236Z,38.56
2019-01-29T12:31:01.297Z,39.40
2019-01-29T12:32:01.221Z,38.68
2019-01-29T12:33:01.372Z,39.21
2019-01-29T12:34:01.212Z,39.42
2019-01-29T12:35:01.282Z,39.21
2019-01-29T12:36:01.207Z,42.29
2019-01-29T12:37:01.167Z,41.27
2019-01-29T12:38:01.205Z,43.63
2019-01-29T12:39:01.361Z,43.12
2019-01-29T12:40:01.155Z,40.66
2019-01-29T12:41:01.278Z,42.08
2019-01-29T12:42:01.452Z,42.18
2019-01-29T12:43:01.160Z,40.55
2019-01-29T12:44:01.284Z,40.33
2019-01-29T12:45:01.101Z,41.66
2019-01-29T12:46:01.103Z,42.27
2019-01-29T12:47:01.139Z,39.82
2019-01-29T12:48:01.083Z,39.42
2019-01-29T12:49:01.066Z,41.06
2019-01-29T12:50:01.049Z,40.25
2019-01-29T12:51:01.208Z,39.64
2019-01-29T12:52:01.107Z,42.27